Decoded Metar for KVNW ( in ) (IATA:) | Meteo·Mobile Aviation Weather
aviador You're here:

KVNW Decoded Metar

in
Report Time2019-07-16 10:55:00
UTC Time2019-07-16 10:56:46
Flight Rules vfr VFR
Wind200° at 04 kt
W.Decomp.*RWY 18: 3.8 kt HW 1.4 kt RCW
RWY 27: 1.4 kt HW 3.8 kt LCW
Visibility9999 m
Phenomena:N/A
Clouds:Overcast 090 Hf
Expected CloudBase > 1,200 ft AGL from Temp-Dew spread
Ceiling9,000 ft
Temp23°C
Dew Point20°C (83% RH)
QNH1017 hPa
Raw Report
KVNW 161055Z AUTO 20004KT 10SM OVC090 23/20 A3004 RMK AO2=

Extra information for KVNW:More info

Social comments